Zim Panama — VSWW5 — position and weather

sailwx.info

Track history (hours):
 
Tides and Currents Weather Stations Pressure Air Temp Water Temp Dewpoint Dewpoint Depression Visibility Wind Speed Wind Dir Waves Ship Positions

Zim Panama

Last reported at 2015-Mar-24 02:33 UTC. Time now 2015-Mar-28 22:12 UTC.
Position N 31°26' E 032°24'.

Length 294.12 m; beam 32.2 m; draft 9.45 m.

Type: Ship (hazmat cat C). MMSI: 235474000.

Date/timePositionNaut miles runAvg speedWind from/ knotsBaromVisibWave heightAir tempDewpointWater temp
2015-Mar-24 02:33N 31°26' E 032°24'  
2015-Mar-19 20:33N 42°15' E 010°05'1919.4
2015-Mar-19 19:33N 42°32' E 009°53'2219.5
2015-Mar-19 18:25N 42°53' E 009°42'1618.5
2015-Mar-19 17:33N 43°08' E 009°42'1919.3
2015-Mar-19 16:33N 43°27' E 009°46'2019.9
2015-Mar-19 15:33N 43°47' E 009°50'1817.5
2015-Mar-19 14:33N 44°05' E 009°51'2 1.8
2015-Mar-19 13:31N 44°06' E 009°51'0 0.0
2015-Mar-19 12:31N 44°06' E 009°51'0 0.0
2015-Mar-19 11:28N 44°06' E 009°51'0 0.0
2015-Mar-19 10:31N 44°06' E 009°51'0 0.0
2015-Mar-19 09:31N 44°06' E 009°51'0 0.0
2015-Mar-19 08:31N 44°06' E 009°51'0 0.0
2015-Mar-19 07:31N 44°06' E 009°51'0 0.0
2015-Mar-19 06:31N 44°06' E 009°51'0 0.0
2015-Mar-19 05:31N 44°06' E 009°51'0 0.0
2015-Mar-19 04:31N 44°06' E 009°51'0 0.0
2015-Mar-19 03:31N 44°06' E 009°51'0 0.0
2015-Mar-19 02:31N 44°06' E 009°51'0 0.0
2015-Mar-19 01:31N 44°06' E 009°51'0 0.0
2015-Mar-19 00:28N 44°06' E 009°51'0 0.0
2015-Mar-18 23:31N 44°06' E 009°51'0 0.0
2015-Mar-18 22:31N 44°06' E 009°51'0 0.0
2015-Mar-18 21:31N 44°06' E 009°51'0 0.0
2015-Mar-18 20:31N 44°06' E 009°51'0 0.0
2015-Mar-18 19:31N 44°06' E 009°51'0 0.0
2015-Mar-18 18:31N 44°06' E 009°51'0 0.0
2015-Mar-18 17:28N 44°06' E 009°51'0 0.0
2015-Mar-18 16:31N 44°06' E 009°51'0 0.0
2015-Mar-18 15:31N 44°06' E 009°51'0 0.0
2015-Mar-18 14:31N 44°06' E 009°51'0 0.0
2015-Mar-18 13:31N 44°06' E 009°51'0 0.0
2015-Mar-18 12:31N 44°06' E 009°51'0 0.0
2015-Mar-18 11:28N 44°06' E 009°51'0 0.0
2015-Mar-18 10:31N 44°06' E 009°51'0 0.0
2015-Mar-18 09:31N 44°06' E 009°51'4 3.8
2015-Mar-18 08:33N 44°03' E 009°52'12010.6
2015-Mar-17 21:16N 43°08' E 007°26'1115.1
2015-Mar-17 20:33N 43°04' E 007°12'1515.0
2015-Mar-17 19:34N 42°57' E 006°54'1615.5
2015-Mar-17 18:33N 42°51' E 006°34'1515.0
2015-Mar-17 17:33N 42°50' E 006°14'4814.6
2015-Mar-17 14:14N 43°06' E 005°11'1014.4
2015-Mar-17 13:33N 43°12' E 005°01'1313.1
2015-Mar-17 12:33N 43°24' E 004°53'3 2.6
2015-Mar-17 11:31N 43°25' E 004°50'0 0.0
2015-Mar-17 10:31N 43°25' E 004°50'0 0.0
2015-Mar-17 09:31N 43°25' E 004°50'0 0.0
2015-Mar-17 08:31N 43°25' E 004°50'0 0.0
2015-Mar-17 07:31N 43°25' E 004°50'0 0.0
2015-Mar-17 06:31N 43°25' E 004°50'0 0.0
2015-Mar-17 05:28N 43°25' E 004°50'0 0.0
2015-Mar-17 04:31N 43°25' E 004°50'0 0.0
2015-Mar-17 03:31N 43°25' E 004°50'0 0.0
2015-Mar-17 02:31N 43°25' E 004°50'0 0.0
2015-Mar-17 01:28N 43°25' E 004°50'0 0.0
2015-Mar-17 00:28N 43°25' E 004°50'0 0.1
2015-Mar-16 23:31N 43°25' E 004°50'0 0.0
2015-Mar-16 22:31N 43°25' E 004°50'0 0.0
2015-Mar-16 21:31N 43°25' E 004°50'0 0.0
2015-Mar-16 20:31N 43°25' E 004°50'0 0.0
2015-Mar-16 19:31N 43°25' E 004°50'0 0.0
2015-Mar-16 18:31N 43°25' E 004°50'0 0.0
2015-Mar-16 17:31N 43°25' E 004°50'0 0.0
2015-Mar-16 16:31N 43°25' E 004°50'0 0.0
2015-Mar-16 15:33N 43°25' E 004°50'4 4.0
2015-Mar-16 14:33N 43°24' E 004°55'9 9.3
2015-Mar-16 13:33N 43°15' E 005°01'9 9.2
2015-Mar-16 12:33N 43°07' E 004°56'1 1.2
2015-Mar-16 11:31N 43°07' E 004°58'1 1.2
2015-Mar-16 10:30N 43°06' E 004°59'1 0.6
2015-Mar-16 09:33N 43°06' E 004°60'2 2.3
2015-Mar-16 08:33N 43°08' E 005°00'2219.7
2015-Mar-16 07:26N 42°51' E 004°42'17118.8
2015-Mar-15 22:20N 40°51' E 001°57'1519.2
2015-Mar-15 21:34N 40°42' E 001°41'2019.5
2015-Mar-15 20:33N 40°30' E 001°21'8519.5
2015-Mar-15 16:11N 39°34' W 000°03'1219.1
2015-Mar-15 15:33N 39°25' W 000°14'4 4.4
2015-Mar-15 14:31N 39°26' W 000°20'0 0.0
2015-Mar-15 13:31N 39°26' W 000°20'0 0.0
2015-Mar-15 12:31N 39°26' W 000°20'0 0.0
2015-Mar-15 11:31N 39°26' W 000°20'0 0.0
2015-Mar-15 10:31N 39°26' W 000°20'0 0.0
2015-Mar-15 09:31N 39°26' W 000°20'0 0.0
2015-Mar-15 08:31N 39°26' W 000°20'0 0.0
2015-Mar-15 07:31N 39°26' W 000°20'0 0.0
2015-Mar-15 06:31N 39°26' W 000°20'0 0.0
2015-Mar-15 05:19N 39°26' W 000°20'0 0.0
2015-Mar-15 04:31N 39°26' W 000°20'0 0.0
2015-Mar-15 03:31N 39°26' W 000°20'0 0.0
2015-Mar-15 02:31N 39°26' W 000°20'0 0.0
2015-Mar-15 01:31N 39°26' W 000°20'0 0.0
2015-Mar-15 00:33N 39°26' W 000°20'4 3.5
2015-Mar-14 23:33N 39°25' W 000°16'8211.8
2015-Mar-14 16:33N 38°03' W 000°05'1817.6
2015-Mar-14 15:33N 37°48' W 000°17'1717.4
2015-Mar-14 14:33N 37°34' W 000°30'1716.5
2015-Mar-14 13:33N 37°23' W 000°45'1817.6
2015-Mar-14 12:33N 37°11' W 001°02'  
Track history (hours):
 
Tides and Currents Weather Stations Pressure Air Temp Water Temp Dewpoint Dewpoint Depression Visibility Wind Speed Wind Dir Waves Ship Positions

Zim Panama

Last reported at 2015-Mar-24 02:33 UTC. Time now 2015-Mar-28 22:12 UTC.
Position N 31°26' E 032°24'.

Length 294.12 m; beam 32.2 m; draft 9.45 m.

Type: Ship (hazmat cat C). MMSI: 235474000.

Date/timePositionNaut miles runAvg speedWind from/ knotsBaromVisibWave heightAir tempDewpointWater temp
2015-Mar-24 02:33N 31°26' E 032°24'  
2015-Mar-19 20:33N 42°15' E 010°05'1919.4
2015-Mar-19 19:33N 42°32' E 009°53'2219.5
2015-Mar-19 18:25N 42°53' E 009°42'1618.5
2015-Mar-19 17:33N 43°08' E 009°42'1919.3
2015-Mar-19 16:33N 43°27' E 009°46'2019.9
2015-Mar-19 15:33N 43°47' E 009°50'1817.5
2015-Mar-19 14:33N 44°05' E 009°51'2 1.8
2015-Mar-19 13:31N 44°06' E 009°51'0 0.0
2015-Mar-19 12:31N 44°06' E 009°51'0 0.0
2015-Mar-19 11:28N 44°06' E 009°51'0 0.0
2015-Mar-19 10:31N 44°06' E 009°51'0 0.0
2015-Mar-19 09:31N 44°06' E 009°51'0 0.0
2015-Mar-19 08:31N 44°06' E 009°51'0 0.0
2015-Mar-19 07:31N 44°06' E 009°51'0 0.0
2015-Mar-19 06:31N 44°06' E 009°51'0 0.0
2015-Mar-19 05:31N 44°06' E 009°51'0 0.0
2015-Mar-19 04:31N 44°06' E 009°51'0 0.0
2015-Mar-19 03:31N 44°06' E 009°51'0 0.0
2015-Mar-19 02:31N 44°06' E 009°51'0 0.0
2015-Mar-19 01:31N 44°06' E 009°51'0 0.0
2015-Mar-19 00:28N 44°06' E 009°51'0 0.0
2015-Mar-18 23:31N 44°06' E 009°51'0 0.0
2015-Mar-18 22:31N 44°06' E 009°51'0 0.0
2015-Mar-18 21:31N 44°06' E 009°51'0 0.0
2015-Mar-18 20:31N 44°06' E 009°51'0 0.0
2015-Mar-18 19:31N 44°06' E 009°51'0 0.0
2015-Mar-18 18:31N 44°06' E 009°51'0 0.0
2015-Mar-18 17:28N 44°06' E 009°51'0 0.0
2015-Mar-18 16:31N 44°06' E 009°51'0 0.0
2015-Mar-18 15:31N 44°06' E 009°51'0 0.0
2015-Mar-18 14:31N 44°06' E 009°51'0 0.0
2015-Mar-18 13:31N 44°06' E 009°51'0 0.0
2015-Mar-18 12:31N 44°06' E 009°51'0 0.0
2015-Mar-18 11:28N 44°06' E 009°51'0 0.0
2015-Mar-18 10:31N 44°06' E 009°51'0 0.0
2015-Mar-18 09:31N 44°06' E 009°51'4 3.8
2015-Mar-18 08:33N 44°03' E 009°52'12010.6
2015-Mar-17 21:16N 43°08' E 007°26'1115.1
2015-Mar-17 20:33N 43°04' E 007°12'1515.0
2015-Mar-17 19:34N 42°57' E 006°54'1615.5
2015-Mar-17 18:33N 42°51' E 006°34'1515.0
2015-Mar-17 17:33N 42°50' E 006°14'4814.6
2015-Mar-17 14:14N 43°06' E 005°11'1014.4
2015-Mar-17 13:33N 43°12' E 005°01'1313.1
2015-Mar-17 12:33N 43°24' E 004°53'3 2.6
2015-Mar-17 11:31N 43°25' E 004°50'0 0.0
2015-Mar-17 10:31N 43°25' E 004°50'0 0.0
2015-Mar-17 09:31N 43°25' E 004°50'0 0.0
2015-Mar-17 08:31N 43°25' E 004°50'0 0.0
2015-Mar-17 07:31N 43°25' E 004°50'0 0.0
2015-Mar-17 06:31N 43°25' E 004°50'0 0.0
2015-Mar-17 05:28N 43°25' E 004°50'0 0.0
2015-Mar-17 04:31N 43°25' E 004°50'0 0.0
2015-Mar-17 03:31N 43°25' E 004°50'0 0.0
2015-Mar-17 02:31N 43°25' E 004°50'0 0.0
2015-Mar-17 01:28N 43°25' E 004°50'0 0.0
2015-Mar-17 00:28N 43°25' E 004°50'0 0.1
2015-Mar-16 23:31N 43°25' E 004°50'0 0.0
2015-Mar-16 22:31N 43°25' E 004°50'0 0.0
2015-Mar-16 21:31N 43°25' E 004°50'0 0.0
2015-Mar-16 20:31N 43°25' E 004°50'0 0.0
2015-Mar-16 19:31N 43°25' E 004°50'0 0.0
2015-Mar-16 18:31N 43°25' E 004°50'0 0.0
2015-Mar-16 17:31N 43°25' E 004°50'0 0.0
2015-Mar-16 16:31N 43°25' E 004°50'0 0.0
2015-Mar-16 15:33N 43°25' E 004°50'4 4.0
2015-Mar-16 14:33N 43°24' E 004°55'9 9.3
2015-Mar-16 13:33N 43°15' E 005°01'9 9.2
2015-Mar-16 12:33N 43°07' E 004°56'1 1.2
2015-Mar-16 11:31N 43°07' E 004°58'1 1.2
2015-Mar-16 10:30N 43°06' E 004°59'1 0.6
2015-Mar-16 09:33N 43°06' E 004°60'2 2.3
2015-Mar-16 08:33N 43°08' E 005°00'2219.7
2015-Mar-16 07:26N 42°51' E 004°42'17118.8
2015-Mar-15 22:20N 40°51' E 001°57'1519.2
2015-Mar-15 21:34N 40°42' E 001°41'2019.5
2015-Mar-15 20:33N 40°30' E 001°21'8519.5
2015-Mar-15 16:11N 39°34' W 000°03'1219.1
2015-Mar-15 15:33N 39°25' W 000°14'4 4.4
2015-Mar-15 14:31N 39°26' W 000°20'0 0.0
2015-Mar-15 13:31N 39°26' W 000°20'0 0.0
2015-Mar-15 12:31N 39°26' W 000°20'0 0.0
2015-Mar-15 11:31N 39°26' W 000°20'0 0.0
2015-Mar-15 10:31N 39°26' W 000°20'0 0.0
2015-Mar-15 09:31N 39°26' W 000°20'0 0.0
2015-Mar-15 08:31N 39°26' W 000°20'0 0.0
2015-Mar-15 07:31N 39°26' W 000°20'0 0.0
2015-Mar-15 06:31N 39°26' W 000°20'0 0.0
2015-Mar-15 05:19N 39°26' W 000°20'0 0.0
2015-Mar-15 04:31N 39°26' W 000°20'0 0.0
2015-Mar-15 03:31N 39°26' W 000°20'0 0.0
2015-Mar-15 02:31N 39°26' W 000°20'0 0.0
2015-Mar-15 01:31N 39°26' W 000°20'0 0.0
2015-Mar-15 00:33N 39°26' W 000°20'4 3.5
2015-Mar-14 23:33N 39°25' W 000°16'8211.8
2015-Mar-14 16:33N 38°03' W 000°05'1817.6
2015-Mar-14 15:33N 37°48' W 000°17'1717.4
2015-Mar-14 14:33N 37°34' W 000°30'1716.5
2015-Mar-14 13:33N 37°23' W 000°45'1817.6
2015-Mar-14 12:33N 37°11' W 001°02'  

Dump ship's entire track history